Time;durP1;ratioP1;P1;durP2;ratioP2;P2;SDS_P1;SDS_P2;PMS_P1;PMS_P2;Temp;Humidity;BMP_temperature;BMP_pressure;BME280_temperature;BME280_humidity;BME280_pressure;Samples;Min_cycle;Max_cycle;Signal;HPM_P1;HPM_P2
2022/03/24 00:00:30;;;;;;;53.03;32.37;;;8.90;74.30;;;;;;4953059;28;20257;-77
2022/03/24 00:02:56;;;;;;;49.57;32.37;;;8.80;74.10;;;;;;4947009;28;20186;-79
2022/03/24 00:05:22;;;;;;;52.30;32.40;;;8.80;74.40;;;;;;4950333;28;20176;-78
2022/03/24 00:07:48;;;;;;;54.03;32.77;;;8.80;75.50;;;;;;4944257;28;20616;-77
2022/03/24 00:10:13;;;;;;;51.17;32.47;;;8.80;74.60;;;;;;4952753;28;20239;-78
2022/03/24 00:12:39;;;;;;;50.70;31.20;;;8.90;74.80;;;;;;4954980;28;20205;-78
2022/03/24 00:15:06;;;;;;;50.93;30.20;;;8.80;75.00;;;;;;4965574;28;20523;-78
2022/03/24 00:17:33;;;;;;;46.17;31.37;;;8.80;75.10;;;;;;4947015;28;20330;-78
2022/03/24 00:19:59;;;;;;;51.43;31.47;;;8.80;74.80;;;;;;4967147;28;20174;-78
2022/03/24 00:22:24;;;;;;;48.30;30.07;;;8.70;74.80;;;;;;4971580;28;20586;-78
2022/03/24 00:24:50;;;;;;;47.83;32.00;;;8.80;75.10;;;;;;4971528;28;20172;-78
2022/03/24 00:27:16;;;;;;;45.73;31.07;;;8.70;74.40;;;;;;4947413;28;20567;-79
2022/03/24 00:29:42;;;;;;;50.27;32.30;;;8.70;74.80;;;;;;4946075;28;20171;-78
2022/03/24 00:32:14;;;;;;;49.73;32.63;;;8.80;75.70;;;;;;4947210;28;20183;-76
2022/03/24 00:34:40;;;;;;;49.53;32.07;;;8.70;75.20;;;;;;4970306;28;20178;-79
2022/03/24 00:37:08;;;;;;;48.03;31.43;;;8.80;75.60;;;;;;4965582;28;20199;-79
2022/03/24 00:39:34;;;;;;;52.20;30.90;;;8.90;75.90;;;;;;4949553;28;20168;-78
2022/03/24 00:42:02;;;;;;;52.33;32.30;;;9.00;76.00;;;;;;4965057;28;20179;-78
2022/03/24 00:44:28;;;;;;;46.77;30.73;;;9.00;75.10;;;;;;4948160;28;20183;-77
2022/03/24 00:46:55;;;;;;;50.30;32.87;;;9.10;75.60;;;;;;4957126;28;20647;-77
2022/03/24 00:49:21;;;;;;;48.77;31.63;;;9.10;75.00;;;;;;4960331;28;20186;-78
2022/03/24 00:51:48;;;;;;;52.80;34.50;;;9.10;75.90;;;;;;4971610;28;20196;-78
2022/03/24 00:54:18;;;;;;;48.60;32.27;;;9.10;74.90;;;;;;4971309;28;20274;-78
2022/03/24 00:57:02;;;;;;;51.90;33.67;;;8.90;76.30;;;;;;4965491;28;20179;-78
2022/03/24 00:59:29;;;;;;;51.70;32.50;;;8.80;76.90;;;;;;4967098;28;20306;-78
2022/03/24 01:01:55;;;;;;;49.13;31.30;;;8.90;76.30;;;;;;4944622;28;20208;-78
2022/03/24 01:04:21;;;;;;;46.03;31.63;;;8.90;76.80;;;;;;4965765;28;20209;-78
2022/03/24 01:06:47;;;;;;;51.80;32.77;;;8.90;76.30;;;;;;4964892;28;20261;-78
2022/03/24 01:09:12;;;;;;;54.97;32.50;;;8.90;75.60;;;;;;4954026;28;20183;-78
2022/03/24 01:11:38;;;;;;;55.40;33.73;;;8.90;77.10;;;;;;4942190;28;20198;-78
2022/03/24 01:14:05;;;;;;;54.43;34.00;;;9.00;76.30;;;;;;4953947;28;20202;-78
2022/03/24 01:16:31;;;;;;;53.60;33.50;;;8.70;75.70;;;;;;4950052;28;20172;-78
2022/03/24 01:18:59;;;;;;;51.83;33.10;;;8.50;76.50;;;;;;4969510;28;20202;-78
2022/03/24 01:21:25;;;;;;;53.20;32.70;;;8.50;77.80;;;;;;4953873;28;20186;-77
2022/03/24 01:23:53;;;;;;;57.17;34.60;;;8.40;77.70;;;;;;4965775;28;20256;-77
2022/03/24 01:26:18;;;;;;;52.70;33.23;;;8.30;78.90;;;;;;4969729;28;20251;-77
2022/03/24 01:28:44;;;;;;;54.30;34.23;;;8.20;79.30;;;;;;4948272;28;20219;-78
2022/03/24 01:31:14;;;;;;;51.23;32.17;;;8.10;79.60;;;;;;4953148;28;20183;-78
2022/03/24 01:33:40;;;;;;;53.20;32.10;;;8.10;80.50;;;;;;4964598;28;20294;-78
2022/03/24 01:36:08;;;;;;;51.67;33.73;;;8.30;80.70;;;;;;4950634;28;20640;-77
2022/03/24 01:38:35;;;;;;;51.53;32.77;;;8.40;81.40;;;;;;4973642;28;20215;-77
2022/03/24 01:41:00;;;;;;;51.90;32.87;;;8.50;80.10;;;;;;4950277;28;20641;-77
2022/03/24 01:43:26;;;;;;;50.70;32.63;;;8.50;80.10;;;;;;4960854;28;20333;-78
2022/03/24 01:45:53;;;;;;;53.50;33.73;;;8.50;80.40;;;;;;4976203;28;20566;-78
2022/03/24 01:48:19;;;;;;;57.13;34.07;;;8.50;82.00;;;;;;4975901;28;20241;-78
2022/03/24 01:50:45;;;;;;;50.27;33.47;;;8.50;82.40;;;;;;4976509;28;20173;-78
2022/03/24 01:53:12;;;;;;;54.60;34.33;;;8.50;82.50;;;;;;4966384;28;20286;-78
2022/03/24 01:55:46;;;;;;;55.90;33.63;;;8.40;82.80;;;;;;4965258;28;20178;-79
2022/03/24 01:58:12;;;;;;;53.50;33.83;;;8.40;83.30;;;;;;4964007;28;20198;-77
2022/03/24 02:00:39;;;;;;;52.87;33.67;;;8.40;82.90;;;;;;4951349;28;20202;-78
2022/03/24 02:03:21;;;;;;;54.53;34.17;;;8.40;83.20;;;;;;4965212;28;20182;-77
2022/03/24 02:05:47;;;;;;;53.27;34.50;;;8.40;83.90;;;;;;4964640;28;20295;-78
2022/03/24 02:08:13;;;;;;;54.47;35.07;;;8.40;84.20;;;;;;4953150;28;20222;-78
2022/03/24 02:10:38;;;;;;;55.70;33.07;;;8.30;83.80;;;;;;4947436;28;20176;-77
2022/03/24 02:13:07;;;;;;;54.83;34.83;;;8.10;84.10;;;;;;4966754;28;20288;-79
2022/03/24 02:15:33;;;;;;;53.57;33.30;;;8.20;84.40;;;;;;4947212;28;20536;-78
2022/03/24 02:17:59;;;;;;;54.60;34.87;;;8.20;83.70;;;;;;4972481;28;20203;-78
2022/03/24 02:20:33;;;;;;;52.93;34.53;;;8.20;83.80;;;;;;4967700;28;20180;-76
2022/03/24 02:22:59;;;;;;;57.37;35.87;;;8.10;84.70;;;;;;4957409;28;20177;-76
2022/03/24 02:25:31;;;;;;;52.37;34.83;;;8.10;85.40;;;;;;4965620;28;20190;-78
2022/03/24 02:27:57;;;;;;;56.17;35.90;;;8.00;86.30;;;;;;4949899;28;20201;-79
2022/03/24 02:30:24;;;;;;;54.00;34.33;;;8.10;86.00;;;;;;4969425;28;20258;-78
2022/03/24 02:32:51;;;;;;;61.73;36.30;;;8.10;86.30;;;;;;4952262;28;20225;-77
2022/03/24 02:35:17;;;;;;;59.60;35.27;;;8.10;86.80;;;;;;4956049;28;20227;-78
2022/03/24 02:37:43;;;;;;;56.60;34.97;;;8.00;87.10;;;;;;4956973;28;20248;-78
2022/03/24 02:40:09;;;;;;;54.67;34.93;;;8.10;87.60;;;;;;4958844;28;20171;-77
2022/03/24 02:42:35;;;;;;;59.40;36.97;;;8.10;87.90;;;;;;4968840;28;20235;-78
2022/03/24 02:45:06;;;;;;;56.57;37.57;;;8.10;88.20;;;;;;4958647;28;20201;-77
2022/03/24 02:47:32;;;;;;;53.40;36.40;;;8.00;87.80;;;;;;4981314;28;20271;-77
2022/03/24 02:49:59;;;;;;;54.10;34.87;;;7.90;87.40;;;;;;4953018;28;20182;-78
2022/03/24 02:52:25;;;;;;;58.40;37.17;;;7.80;88.90;;;;;;4980943;28;20216;-78
2022/03/24 02:54:51;;;;;;;57.30;36.67;;;7.60;87.70;;;;;;4953120;28;20268;-77
2022/03/24 02:57:17;;;;;;;56.57;36.03;;;7.50;90.40;;;;;;4973778;28;20214;-77
2022/03/24 02:59:43;;;;;;;58.97;36.33;;;7.60;90.00;;;;;;4975749;28;20312;-77
2022/03/24 03:02:13;;;;;;;59.00;36.80;;;7.50;92.20;;;;;;4972183;28;20194;-78
2022/03/24 03:04:51;;;;;;;58.83;38.47;;;7.50;90.40;;;;;;4958435;28;20177;-78
2022/03/24 03:07:17;;;;;;;57.43;38.23;;;7.30;90.50;;;;;;4958143;28;20200;-78
2022/03/24 03:09:44;;;;;;;63.73;39.03;;;7.50;91.60;;;;;;4961818;28;20267;-78
2022/03/24 03:12:10;;;;;;;59.20;37.87;;;7.60;91.00;;;;;;4961751;28;20314;-78
2022/03/24 03:14:38;;;;;;;59.53;37.53;;;7.50;90.90;;;;;;4965332;28;20207;-78
2022/03/24 03:17:04;;;;;;;63.27;38.47;;;7.30;90.90;;;;;;4968821;28;20198;-79
2022/03/24 03:19:30;;;;;;;57.77;38.10;;;7.30;91.40;;;;;;4974741;28;20183;-77
2022/03/24 03:21:56;;;;;;;62.37;38.20;;;7.20;92.10;;;;;;4969130;28;20180;-79
2022/03/24 03:24:22;;;;;;;63.73;39.07;;;7.10;91.90;;;;;;4970152;28;20184;-79
2022/03/24 03:26:49;;;;;;;56.23;37.60;;;7.20;93.40;;;;;;4952379;28;20658;-78
2022/03/24 03:29:16;;;;;;;57.80;37.60;;;7.20;92.70;;;;;;4965574;28;20690;-77
2022/03/24 03:31:42;;;;;;;59.97;37.37;;;7.20;92.50;;;;;;4972806;28;20180;-79
2022/03/24 03:34:09;;;;;;;64.20;38.17;;;7.30;93.30;;;;;;4956994;28;20213;-79
2022/03/24 03:36:36;;;;;;;61.70;36.80;;;7.40;93.60;;;;;;4953948;28;20195;-77
2022/03/24 03:39:03;;;;;;;57.13;36.93;;;7.60;92.70;;;;;;4951919;28;20302;-78
2022/03/24 03:41:31;;;;;;;63.70;37.97;;;7.50;92.30;;;;;;4951084;28;20227;-78
2022/03/24 03:43:58;;;;;;;58.20;38.73;;;7.30;93.00;;;;;;4949578;28;20681;-77
2022/03/24 03:46:25;;;;;;;62.30;38.93;;;7.10;92.80;;;;;;4961891;28;20175;-78
2022/03/24 03:48:53;;;;;;;53.07;36.00;;;7.10;94.20;;;;;;4958050;28;20287;-78
2022/03/24 03:51:19;;;;;;;62.40;38.17;;;7.30;95.10;;;;;;4953131;28;20188;-78
2022/03/24 03:53:44;;;;;;;55.63;36.07;;;7.30;93.30;;;;;;4945001;28;20203;-77
2022/03/24 03:56:12;;;;;;;59.30;37.27;;;7.20;94.40;;;;;;4946029;28;20188;-78
2022/03/24 03:58:38;;;;;;;62.63;39.03;;;7.20;94.00;;;;;;4976877;28;20205;-77
2022/03/24 04:01:04;;;;;;;63.50;38.00;;;7.30;94.30;;;;;;4958016;28;20179;-77
2022/03/24 04:03:32;;;;;;;63.30;39.20;;;7.20;93.30;;;;;;4960233;28;20198;-77
2022/03/24 04:05:59;;;;;;;61.30;38.93;;;7.10;93.30;;;;;;4967589;28;20179;-77
2022/03/24 04:08:27;;;;;;;58.87;37.13;;;6.90;94.10;;;;;;4953885;28;20652;-77
2022/03/24 04:10:54;;;;;;;63.80;39.23;;;6.90;94.00;;;;;;4972746;28;20180;-78
2022/03/24 04:13:21;;;;;;;61.63;38.80;;;6.80;94.10;;;;;;4974620;28;20204;-78
2022/03/24 04:15:48;;;;;;;58.30;36.83;;;6.80;95.30;;;;;;4961077;28;20236;-78
2022/03/24 04:18:14;;;;;;;66.00;39.87;;;6.70;94.70;;;;;;4976449;28;20196;-78
2022/03/24 04:20:40;;;;;;;62.23;38.63;;;6.70;95.30;;;;;;4977439;28;20187;-77
2022/03/24 04:23:07;;;;;;;58.47;36.73;;;6.60;96.30;;;;;;4975917;28;20560;-77
2022/03/24 04:25:33;;;;;;;58.73;37.10;;;6.90;96.10;;;;;;4974480;28;20180;-77
2022/03/24 04:27:59;;;;;;;63.87;38.90;;;7.00;95.70;;;;;;4957238;28;20356;-78
2022/03/24 04:30:26;;;;;;;59.97;38.67;;;7.00;95.60;;;;;;4958924;28;20198;-78
2022/03/24 04:32:53;;;;;;;57.43;36.60;;;7.00;96.00;;;;;;4979271;28;20209;-78
2022/03/24 04:35:19;;;;;;;59.57;38.40;;;7.00;96.00;;;;;;4972927;28;20190;-78
2022/03/24 04:37:45;;;;;;;60.23;37.47;;;7.00;96.00;;;;;;4959365;28;20350;-78
2022/03/24 04:40:12;;;;;;;61.97;39.97;;;7.10;96.60;;;;;;4972229;28;20247;-77
2022/03/24 04:42:43;;;;;;;59.10;35.90;;;7.00;95.20;;;;;;4969521;28;20274;-78
2022/03/24 04:45:09;;;;;;;63.60;37.17;;;7.00;94.90;;;;;;4952281;28;20176;-78
2022/03/24 04:47:36;;;;;;;59.47;37.10;;;6.90;95.20;;;;;;4966563;28;20290;-78
2022/03/24 04:50:03;;;;;;;61.40;36.30;;;6.90;96.60;;;;;;4964813;28;20223;-78
2022/03/24 04:52:28;;;;;;;54.83;35.37;;;7.00;96.50;;;;;;4952153;28;20174;-78
2022/03/24 04:54:54;;;;;;;52.90;35.03;;;7.10;96.50;;;;;;4952467;28;20270;-77
2022/03/24 04:57:20;;;;;;;60.73;38.13;;;7.10;96.10;;;;;;4948595;28;20203;-77
2022/03/24 04:59:45;;;;;;;65.03;39.57;;;7.00;96.70;;;;;;4965153;28;20187;-78
2022/03/24 05:02:15;;;;;;;62.10;38.80;;;6.90;95.10;;;;;;4969117;28;20552;-78
2022/03/24 05:04:42;;;;;;;60.30;36.60;;;6.90;96.10;;;;;;4950498;28;20180;-78
2022/03/24 05:07:09;;;;;;;62.13;37.50;;;7.00;96.90;;;;;;4966992;28;20287;-77
2022/03/24 05:09:35;;;;;;;57.97;37.80;;;7.00;97.80;;;;;;4965477;28;20333;-78
2022/03/24 05:12:01;;;;;;;59.30;37.97;;;7.00;96.40;;;;;;4949176;28;20183;-78
2022/03/24 05:14:27;;;;;;;56.57;36.47;;;6.90;95.70;;;;;;4964917;28;20222;-78
2022/03/24 05:16:59;;;;;;;58.03;35.90;;;6.80;95.80;;;;;;4964349;28;20259;-78
2022/03/24 05:19:25;;;;;;;60.27;37.53;;;6.60;95.60;;;;;;4965017;28;20196;-77
2022/03/24 05:21:51;;;;;;;63.83;35.50;;;6.50;96.00;;;;;;4952432;28;20673;-79
2022/03/24 05:24:17;;;;;;;63.27;37.27;;;6.40;96.50;;;;;;4949506;28;20208;-77
2022/03/24 05:26:43;;;;;;;62.93;37.93;;;6.30;96.90;;;;;;4951283;28;20203;-76
2022/03/24 05:29:08;;;;;;;66.37;39.80;;;6.30;99.80;;;;;;4954954;28;20639;-77
2022/03/24 05:31:34;;;;;;;60.00;37.83;;;6.40;98.20;;;;;;4948126;28;20176;-77
2022/03/24 05:34:00;;;;;;;60.53;38.50;;;6.30;99.10;;;;;;4948234;28;20211;-78
2022/03/24 05:36:26;;;;;;;57.37;36.90;;;6.60;99.30;;;;;;4955511;28;20175;-78
2022/03/24 05:38:51;;;;;;;59.80;37.17;;;6.80;99.90;;;;;;4960837;28;20248;-78
2022/03/24 05:41:17;;;;;;;62.07;39.63;;;6.90;99.40;;;;;;4955762;28;20650;-77
2022/03/24 05:44:02;;;;;;;63.53;39.33;;;6.70;98.10;;;;;;4944571;28;20180;-76
2022/03/24 05:46:33;;;;;;;64.37;40.53;;;6.50;98.60;;;;;;4954275;28;20178;-77
2022/03/24 05:48:59;;;;;;;62.03;38.93;;;6.60;99.90;;;;;;4955985;28;20200;-78
2022/03/24 05:51:45;;;;;;;61.77;37.93;;;6.50;99.40;;;;;;4960249;28;20194;-78
2022/03/24 05:54:13;;;;;;;62.50;38.70;;;6.50;99.90;;;;;;4943782;28;20250;-78
2022/03/24 05:56:39;;;;;;;62.50;39.37;;;6.40;99.60;;;;;;4943958;28;20180;-78
2022/03/24 05:59:05;;;;;;;66.30;41.20;;;6.40;99.60;;;;;;4943422;28;20206;-77
2022/03/24 06:01:31;;;;;;;66.30;42.07;;;6.40;99.90;;;;;;4947626;28;20182;-78
2022/03/24 06:03:59;;;;;;;66.33;40.07;;;6.40;99.90;;;;;;4978730;28;20187;-78
2022/03/24 06:06:26;;;;;;;66.93;41.70;;;6.40;99.90;;;;;;4978818;28;20188;-79
2022/03/24 06:08:53;;;;;;;65.20;40.60;;;6.40;99.90;;;;;;4960410;28;20223;-77
2022/03/24 06:11:19;;;;;;;66.53;39.23;;;6.40;99.90;;;;;;4953879;28;20179;-78
2022/03/24 06:13:48;;;;;;;57.00;37.50;;;6.50;99.90;;;;;;4949278;28;20210;-77
2022/03/24 06:16:13;;;;;;;58.87;38.00;;;6.40;99.60;;;;;;4967887;28;20176;-77
2022/03/24 06:18:40;;;;;;;58.80;37.17;;;6.20;99.90;;;;;;4970195;28;20253;-77
2022/03/24 06:21:07;;;;;;;57.03;36.13;;;6.20;99.90;;;;;;4948360;28;20176;-77
2022/03/24 06:23:51;;;;;;;59.47;37.67;;;6.30;99.90;;;;;;4949504;28;20671;-77
2022/03/24 06:26:19;;;;;;;65.83;39.70;;;6.20;99.90;;;;;;4952823;28;20189;-78
2022/03/24 06:28:45;;;;;;;65.10;39.33;;;6.30;99.90;;;;;;4966877;28;20235;-78
2022/03/24 06:31:20;;;;;;;61.60;37.53;;;6.50;99.90;;;;;;4952022;28;20536;-77
2022/03/24 06:33:48;;;;;;;66.93;38.23;;;6.80;99.90;;;;;;4968868;28;20203;-77
2022/03/24 06:36:16;;;;;;;66.23;39.43;;;6.80;99.90;;;;;;4968344;28;20202;-78
2022/03/24 06:38:42;;;;;;;64.00;38.77;;;6.70;99.80;;;;;;4953398;28;20208;-78
2022/03/24 06:41:08;;;;;;;68.47;39.67;;;6.60;99.90;;;;;;4966192;28;20242;-78
2022/03/24 06:43:36;;;;;;;67.43;41.63;;;6.60;99.90;;;;;;4943618;28;20215;-78
2022/03/24 06:46:06;;;;;;;65.23;40.37;;;6.60;99.90;;;;;;4951690;28;20182;-78
2022/03/24 06:48:32;;;;;;;71.50;41.13;;;6.50;99.90;;;;;;4960379;28;20273;-77
2022/03/24 06:50:58;;;;;;;61.70;38.83;;;6.50;99.90;;;;;;4977959;28;20230;-77
2022/03/24 06:53:24;;;;;;;68.63;40.53;;;6.60;99.90;;;;;;4978275;28;20223;-77
2022/03/24 06:55:49;;;;;;;66.33;40.57;;;6.70;99.90;;;;;;4977749;28;20194;-78
2022/03/24 06:58:15;;;;;;;71.13;40.17;;;6.90;99.90;;;;;;4977397;28;20195;-77
2022/03/24 07:00:41;;;;;;;68.17;39.50;;;7.00;99.80;;;;;;4977751;28;20268;-77
2022/03/24 07:03:07;;;;;;;65.17;39.73;;;7.20;99.50;;;;;;4977200;28;20183;-78
2022/03/24 07:05:33;;;;;;;73.10;41.97;;;7.40;99.10;;;;;;4977606;28;20186;-77
2022/03/24 07:07:58;;;;;;;70.17;39.47;;;7.70;99.40;;;;;;4977576;28;20212;-77
2022/03/24 07:10:24;;;;;;;69.13;41.43;;;7.80;97.60;;;;;;4977807;28;20245;-78
2022/03/24 07:12:50;;;;;;;59.83;40.00;;;7.80;97.80;;;;;;4978083;28;20195;-77
2022/03/24 07:15:16;;;;;;;73.03;42.40;;;7.70;97.60;;;;;;4978780;28;20543;-78
2022/03/24 07:17:42;;;;;;;70.13;41.30;;;7.60;97.60;;;;;;4977877;28;20242;-77
2022/03/24 07:20:08;;;;;;;68.17;39.47;;;7.50;97.80;;;;;;4976372;28;20227;-77
2022/03/24 07:22:35;;;;;;;67.87;41.23;;;7.50;97.90;;;;;;4978076;28;20187;-78
2022/03/24 07:25:02;;;;;;;58.33;38.10;;;7.40;97.90;;;;;;5001494;28;20183;-76
2022/03/24 07:27:28;;;;;;;65.97;38.97;;;7.30;98.60;;;;;;4998958;28;20203;-77
2022/03/24 07:29:54;;;;;;;63.70;37.47;;;7.50;98.30;;;;;;4998121;28;20182;-78
2022/03/24 07:32:20;;;;;;;59.50;37.13;;;7.50;98.10;;;;;;4999019;28;20271;-78
2022/03/24 07:34:46;;;;;;;58.97;35.13;;;7.60;96.80;;;;;;4998256;28;20737;-75
2022/03/24 07:37:12;;;;;;;54.37;32.60;;;7.70;95.20;;;;;;4984077;28;20299;-78
2022/03/24 07:39:38;;;;;;;62.20;36.23;;;7.70;94.40;;;;;;4962288;28;20180;-77
2022/03/24 07:42:04;;;;;;;58.00;34.60;;;7.80;94.50;;;;;;4971859;28;20184;-80
2022/03/24 07:44:30;;;;;;;47.60;31.87;;;7.90;94.30;;;;;;4969856;28;20181;-79
2022/03/24 07:46:56;;;;;;;55.20;32.17;;;7.90;93.20;;;;;;4969048;28;20184;-78
2022/03/24 07:49:22;;;;;;;52.20;33.27;;;8.00;93.20;;;;;;4963356;28;20192;-78
2022/03/24 07:51:48;;;;;;;56.93;32.60;;;8.20;93.70;;;;;;4964488;28;20186;-79
2022/03/24 07:54:13;;;;;;;49.27;30.53;;;8.50;93.60;;;;;;4964413;28;20220;-78
2022/03/24 07:56:39;;;;;;;51.30;31.77;;;8.70;92.60;;;;;;4964844;28;20608;-78
2022/03/24 07:59:06;;;;;;;49.50;32.47;;;9.00;93.10;;;;;;4964325;28;20245;-78
2022/03/24 08:01:34;;;;;;;57.63;33.83;;;9.00;92.30;;;;;;4969878;28;20245;-79
2022/03/24 08:04:05;;;;;;;49.90;33.37;;;9.00;92.20;;;;;;4969040;28;20191;-78
2022/03/24 08:06:31;;;;;;;57.43;33.30;;;9.10;92.50;;;;;;4971594;28;20186;-78
2022/03/24 08:08:58;;;;;;;52.10;33.30;;;9.20;92.80;;;;;;4968044;28;20209;-77
2022/03/24 08:11:25;;;;;;;57.03;34.60;;;9.30;93.40;;;;;;4966839;28;20273;-78
2022/03/24 08:13:53;;;;;;;59.00;33.87;;;9.50;92.10;;;;;;4966094;28;20629;-79
2022/03/24 08:16:21;;;;;;;60.13;33.40;;;9.70;92.80;;;;;;4963614;28;20202;-78
2022/03/24 08:18:47;;;;;;;52.53;33.77;;;9.80;90.70;;;;;;4964061;28;20195;-80
2022/03/24 08:21:12;;;;;;;54.07;34.10;;;9.90;91.20;;;;;;4966770;28;20183;-78
2022/03/24 08:23:38;;;;;;;54.57;34.50;;;10.00;90.90;;;;;;4964172;28;20184;-79
2022/03/24 08:26:05;;;;;;;64.17;35.80;;;10.00;88.20;;;;;;4964825;28;20187;-79
2022/03/24 08:28:31;;;;;;;62.10;36.60;;;10.10;90.00;;;;;;4963253;28;20199;-79
2022/03/24 08:30:57;;;;;;;57.13;35.23;;;10.10;89.00;;;;;;4968245;28;20191;-79
2022/03/24 08:33:22;;;;;;;60.20;34.93;;;10.20;87.30;;;;;;4969439;28;20210;-78
2022/03/24 08:35:48;;;;;;;57.13;36.43;;;10.10;88.40;;;;;;4965885;28;20191;-80
2022/03/24 08:38:14;;;;;;;63.07;37.50;;;10.30;91.00;;;;;;4984743;28;20214;-76
2022/03/24 08:40:40;;;;;;;69.83;38.83;;;10.20;86.60;;;;;;5002740;28;20202;-78
2022/03/24 08:43:07;;;;;;;65.93;37.63;;;10.20;86.90;;;;;;5005385;28;20626;-77
2022/03/24 08:45:34;;;;;;;60.77;36.83;;;10.10;87.90;;;;;;5003085;28;20278;-78
2022/03/24 08:48:00;;;;;;;56.40;35.80;;;10.10;89.00;;;;;;5007602;28;20207;-78
2022/03/24 08:50:26;;;;;;;60.37;36.97;;;10.20;90.00;;;;;;5007551;28;20189;-78
2022/03/24 08:52:51;;;;;;;59.27;35.40;;;10.40;87.50;;;;;;5000941;28;20182;-79
2022/03/24 08:55:19;;;;;;;55.17;35.57;;;10.50;90.50;;;;;;5000960;28;20270;-79
2022/03/24 08:57:45;;;;;;;60.33;35.77;;;10.60;87.10;;;;;;4999922;28;20213;-79
2022/03/24 09:00:13;;;;;;;60.60;36.57;;;10.80;86.70;;;;;;5001285;28;20187;-81
2022/03/24 09:02:40;;;;;;;54.33;35.00;;;10.90;83.90;;;;;;5003132;28;20205;-79
2022/03/24 09:05:06;;;;;;;53.77;33.97;;;10.90;84.00;;;;;;4999056;28;20172;-78
2022/03/24 09:07:32;;;;;;;46.93;32.17;;;10.90;87.00;;;;;;5002841;28;20539;-79
2022/03/24 09:09:58;;;;;;;50.97;33.63;;;11.00;83.40;;;;;;5003764;28;20190;-80
2022/03/24 09:12:24;;;;;;;53.57;34.90;;;11.10;83.70;;;;;;5005177;28;20186;-79
2022/03/24 09:14:50;;;;;;;49.83;35.53;;;11.20;83.30;;;;;;5000646;28;20300;-78
2022/03/24 09:17:16;;;;;;;51.87;33.77;;;11.30;82.10;;;;;;4998732;28;20203;-79
2022/03/24 09:19:42;;;;;;;51.80;34.60;;;11.40;79.00;;;;;;5000290;28;20320;-79
2022/03/24 09:22:08;;;;;;;51.67;33.13;;;11.50;78.70;;;;;;4999387;28;20204;-77
2022/03/24 09:24:34;;;;;;;52.13;31.93;;;11.60;80.30;;;;;;4999873;28;20191;-79
2022/03/24 09:27:01;;;;;;;46.77;31.10;;;11.60;75.50;;;;;;5002158;28;20199;-80
2022/03/24 09:29:26;;;;;;;44.20;29.20;;;11.70;75.50;;;;;;5000106;28;20535;-78
2022/03/24 09:31:52;;;;;;;44.00;31.33;;;11.80;79.10;;;;;;5000178;28;20189;-79
2022/03/24 09:34:18;;;;;;;45.20;30.10;;;12.00;76.00;;;;;;4998820;28;20204;-81
2022/03/24 09:36:44;;;;;;;45.97;29.60;;;12.10;70.30;;;;;;5001128;28;20189;-80
2022/03/24 09:39:09;;;;;;;43.57;28.43;;;12.10;71.50;;;;;;5003476;28;20196;-78
2022/03/24 09:41:36;;;;;;;41.17;28.23;;;12.30;72.40;;;;;;5002909;28;20247;-79
2022/03/24 09:44:03;;;;;;;41.90;28.80;;;12.40;71.20;;;;;;4999385;28;20196;-78
2022/03/24 09:46:31;;;;;;;43.13;29.77;;;12.60;69.50;;;;;;4997673;28;20186;-77
2022/03/24 09:48:58;;;;;;;43.13;27.50;;;12.80;69.70;;;;;;4996704;28;20205;-78
2022/03/24 09:51:26;;;;;;;44.23;29.77;;;13.10;73.80;;;;;;4996005;28;20186;-78
2022/03/24 09:53:52;;;;;;;47.40;30.43;;;13.30;66.60;;;;;;4996132;28;20206;-78
2022/03/24 09:56:18;;;;;;;43.73;29.53;;;13.50;66.30;;;;;;4996288;28;20175;-78
2022/03/24 09:58:47;;;;;;;43.63;28.57;;;13.70;65.70;;;;;;5000141;28;20202;-78
2022/03/24 10:01:13;;;;;;;45.93;30.70;;;13.80;63.60;;;;;;4999818;28;20175;-78
2022/03/24 10:03:59;;;;;;;45.43;29.97;;;13.80;63.40;;;;;;5000210;28;20205;-78
2022/03/24 10:06:25;;;;;;;44.03;28.70;;;13.80;61.90;;;;;;4995569;28;20265;-78
2022/03/24 10:08:51;;;;;;;43.63;30.13;;;14.00;63.00;;;;;;4995105;28;20635;-78
2022/03/24 10:11:16;;;;;;;44.47;29.97;;;14.20;62.00;;;;;;4995242;28;20194;-78
2022/03/24 10:13:43;;;;;;;45.03;28.07;;;14.40;61.70;;;;;;4996738;28;20214;-78
2022/03/24 10:16:33;;;;;;;45.13;28.83;;;14.70;60.30;;;;;;4996328;28;20266;-78
2022/03/24 10:19:06;;;;;;;46.27;31.03;;;14.90;60.30;;;;;;4995192;28;20289;-77
2022/03/24 10:21:35;;;;;;;47.77;31.43;;;15.30;58.90;;;;;;4994937;28;20189;-78
2022/03/24 10:24:27;;;;;;;50.33;31.17;;;15.50;59.00;;;;;;4995190;28;20178;-78
2022/03/24 10:27:02;;;;;;;49.77;31.67;;;15.70;58.60;;;;;;4995790;28;20209;-78
2022/03/24 10:29:29;;;;;;;48.83;30.10;;;15.90;57.90;;;;;;4994702;28;20217;-77
2022/03/24 10:31:57;;;;;;;46.33;31.87;;;16.10;61.00;;;;;;4994322;28;20175;-77
2022/03/24 10:34:34;;;;;;;46.07;31.67;;;16.20;60.40;;;;;;4995021;28;20696;-76
2022/03/24 10:37:09;;;;;;;45.30;31.13;;;16.40;56.20;;;;;;4995317;28;20178;-77
2022/03/24 10:39:36;;;;;;;49.70;31.87;;;16.20;55.80;;;;;;4998466;28;20178;-76
2022/03/24 10:42:14;;;;;;;46.83;30.80;;;16.20;55.10;;;;;;4997962;28;20179;-76
2022/03/24 10:45:10;;;;;;;51.07;31.87;;;16.50;55.10;;;;;;4998578;28;20193;-78
2022/03/24 10:47:42;;;;;;;49.47;30.97;;;16.80;53.90;;;;;;4997824;28;20230;-77
2022/03/24 10:50:30;;;;;;;45.80;29.30;;;17.10;53.10;;;;;;4982924;28;20194;-77
2022/03/24 10:53:05;;;;;;;50.63;31.50;;;17.60;52.00;;;;;;4962315;28;20186;-78
2022/03/24 10:56:00;;;;;;;42.70;31.03;;;18.30;51.90;;;;;;4962526;28;20179;-78
2022/03/24 10:58:33;;;;;;;43.00;30.60;;;19.10;51.10;;;;;;4974430;28;20662;-77
2022/03/24 11:01:06;;;;;;;46.27;30.33;;;20.30;47.70;;;;;;4963499;28;20270;-77
2022/03/24 11:03:39;;;;;;;41.13;29.40;;;20.70;46.10;;;;;;4965813;28;20175;-77
2022/03/24 11:06:22;;;;;;;41.57;29.73;;;21.30;45.50;;;;;;4965500;28;20195;-77
2022/03/24 11:08:59;;;;;;;44.60;29.13;;;23.50;43.10;;;;;;4965408;28;20203;-77
2022/03/24 11:11:31;;;;;;;43.20;29.43;;;23.90;40.90;;;;;;4965544;28;20182;-77
2022/03/24 11:14:04;;;;;;;43.33;29.33;;;23.40;40.40;;;;;;4965416;28;20290;-77
2022/03/24 11:16:33;;;;;;;43.47;30.17;;;24.00;39.50;;;;;;4965861;28;20179;-76
2022/03/24 11:19:00;;;;;;;42.57;28.57;;;24.40;39.10;;;;;;4964662;28;20195;-77
2022/03/24 11:21:32;;;;;;;43.43;29.27;;;24.20;39.00;;;;;;4964883;28;20179;-76
2022/03/24 11:23:58;;;;;;;44.77;29.73;;;22.60;38.80;;;;;;4964454;28;20210;-78
2022/03/24 11:26:25;;;;;;;43.10;27.63;;;22.70;40.00;;;;;;4964340;28;20179;-79
2022/03/24 11:28:55;;;;;;;42.33;28.13;;;22.90;41.00;;;;;;4964154;28;20199;-78
2022/03/24 11:31:31;;;;;;;39.40;28.13;;;23.20;40.20;;;;;;4964054;28;20179;-79
2022/03/24 11:34:00;;;;;;;41.73;28.87;;;22.90;39.30;;;;;;4965091;28;20199;-77
2022/03/24 11:36:28;;;;;;;41.40;28.47;;;22.70;38.40;;;;;;4964113;28;20203;-78
2022/03/24 11:38:56;;;;;;;38.77;27.43;;;22.80;38.60;;;;;;4965394;28;20222;-78
2022/03/24 11:41:37;;;;;;;40.17;28.53;;;22.40;39.00;;;;;;4963475;28;20241;-78
2022/03/24 11:44:16;;;;;;;41.90;27.90;;;22.00;39.30;;;;;;4963643;28;20670;-78
2022/03/24 11:46:54;;;;;;;39.83;28.23;;;21.50;39.00;;;;;;4964662;28;20185;-78
2022/03/24 11:49:22;;;;;;;40.67;28.33;;;21.00;40.10;;;;;;4963871;28;20233;-79
2022/03/24 11:52:11;;;;;;;36.77;26.40;;;20.70;39.90;;;;;;4963953;28;20199;-76
2022/03/24 11:54:50;;;;;;;39.50;27.07;;;20.40;41.20;;;;;;4965257;28;20342;-77
2022/03/24 11:57:31;;;;;;;37.10;25.90;;;20.10;41.50;;;;;;4963633;28;20654;-78
2022/03/24 12:00:15;;;;;;;39.13;26.63;;;20.10;41.70;;;;;;4963632;28;20175;-79
2022/03/24 12:02:45;;;;;;;39.07;26.57;;;20.20;41.40;;;;;;4963744;28;20176;-78
2022/03/24 12:05:13;;;;;;;37.77;26.50;;;20.20;41.60;;;;;;4963409;28;20661;-78
2022/03/24 12:07:39;;;;;;;39.87;26.77;;;20.30;41.40;;;;;;4970670;28;20206;-78
2022/03/24 12:10:30;;;;;;;40.23;25.83;;;20.90;41.60;;;;;;4976741;28;20176;-77
2022/03/24 12:13:21;;;;;;;34.57;24.50;;;22.30;38.80;;;;;;4943824;28;20187;-79
2022/03/24 12:16:30;;;;;;;34.53;23.63;;;22.60;39.90;;;;;;4944914;28;20184;-79
2022/03/24 12:19:02;;;;;;;37.00;24.37;;;24.60;38.10;;;;;;4958763;28;20207;-78
2022/03/24 12:21:30;;;;;;;38.37;27.23;;;26.90;37.00;;;;;;4959183;28;20180;-78
2022/03/24 12:24:14;;;;;;;38.80;26.33;;;28.30;34.60;;;;;;4958730;28;20187;-77
2022/03/24 12:26:49;;;;;;;36.43;26.00;;;26.70;34.10;;;;;;4958506;28;20203;-78
2022/03/24 12:29:27;;;;;;;40.40;26.53;;;24.30;36.00;;;;;;4974782;28;20278;-78
2022/03/24 12:31:59;;;;;;;36.87;25.87;;;21.80;38.80;;;;;;4959251;28;20246;-78
2022/03/24 12:34:49;;;;;;;42.90;25.60;;;20.20;40.60;;;;;;4959284;28;20207;-81
2022/03/24 12:37:39;;;;;;;34.70;24.27;;;18.90;42.30;;;;;;4960387;28;20208;-79
2022/03/24 12:40:10;;;;;;;42.87;25.27;;;18.30;43.40;;;;;;4951067;28;20222;-78